createdAt,value
2023-04-16T00:00:04.853Z,94.11
2023-04-16T00:02:32.785Z,93.99
2023-04-16T00:05:01.215Z,93.77
2023-04-16T00:07:29.192Z,94.35
2023-04-16T00:09:57.111Z,94.16
2023-04-16T00:12:25.250Z,93.82
2023-04-16T00:14:53.094Z,94.08
2023-04-16T00:17:22.337Z,94.13
2023-04-16T00:19:50.184Z,94.06
2023-04-16T00:22:18.154Z,93.39
2023-04-16T00:24:45.963Z,93.83
2023-04-16T00:27:13.848Z,93.76
2023-04-16T00:29:41.668Z,93.88
2023-04-16T00:32:09.757Z,94.38
2023-04-16T00:34:39.005Z,94.62
2023-04-16T00:37:08.549Z,94.35
2023-04-16T00:39:36.452Z,94.43
2023-04-16T00:42:04.419Z,94.81
2023-04-16T00:44:34.909Z,95.22
2023-04-16T00:47:03.880Z,94.77
2023-04-16T00:49:32.372Z,95.24
2023-04-16T00:52:02.554Z,94.99
2023-04-16T00:54:32.749Z,94.94
2023-04-16T00:57:01.630Z,95.25
2023-04-16T00:59:30.248Z,95.32
2023-04-16T01:01:58.241Z,95.49
2023-04-16T01:04:26.513Z,94.92
2023-04-16T01:06:54.816Z,95.29
2023-04-16T01:09:24.050Z,95.64
2023-04-16T01:11:51.905Z,95.29
2023-04-16T01:14:19.759Z,95.37
2023-04-16T01:16:47.614Z,95.59
2023-04-16T01:19:15.505Z,95.30
2023-04-16T01:21:44.764Z,95.72
2023-04-16T01:24:12.599Z,95.86
2023-04-16T01:26:40.450Z,95.23
2023-04-16T01:29:08.578Z,95.57
2023-04-16T01:31:36.727Z,95.55
2023-04-16T01:34:04.663Z,95.61
2023-04-16T01:36:32.554Z,95.36
2023-04-16T01:39:01.761Z,95.56
2023-04-16T01:41:29.588Z,95.55
2023-04-16T01:43:57.424Z,95.67
2023-04-16T01:46:29.341Z,95.53
2023-04-16T01:48:57.965Z,95.08
2023-04-16T01:51:25.959Z,95.27
2023-04-16T01:53:53.873Z,95.16
2023-04-16T01:56:23.138Z,95.31
2023-04-16T01:58:51.065Z,94.99
2023-04-16T02:01:19.285Z,95.01
2023-04-16T02:03:47.888Z,94.77
2023-04-16T02:06:15.936Z,94.82
2023-04-16T02:08:43.833Z,94.83
2023-04-16T02:11:11.745Z,95.36
2023-04-16T02:13:40.981Z,95.75
2023-04-16T02:16:08.940Z,95.23
2023-04-16T02:18:36.830Z,95.14
2023-04-16T02:21:06.472Z,95.66
2023-04-16T02:23:34.569Z,95.35
2023-04-16T02:26:04.489Z,95.12
2023-04-16T02:28:32.337Z,95.40
2023-04-16T02:31:01.580Z,95.21
2023-04-16T02:33:33.767Z,95.42
2023-04-16T02:36:01.673Z,94.99
2023-04-16T02:38:29.664Z,95.18
2023-04-16T02:40:57.474Z,94.78
2023-04-16T02:43:25.340Z,94.83
2023-04-16T02:45:53.213Z,95.09
2023-04-16T02:48:22.636Z,94.99
2023-04-16T02:50:50.440Z,94.78
2023-04-16T02:53:18.565Z,95.11
2023-04-16T02:55:52.515Z,94.58
2023-04-16T02:58:20.529Z,94.33
2023-04-16T03:00:48.890Z,94.40
2023-04-16T03:03:20.504Z,94.67
2023-04-16T03:05:49.885Z,94.50
2023-04-16T03:08:17.751Z,94.65
2023-04-16T03:10:45.659Z,94.79
2023-04-16T03:13:16.506Z,94.64
2023-04-16T03:15:49.886Z,94.74
2023-04-16T03:18:17.871Z,94.55
2023-04-16T03:20:45.888Z,94.60
2023-04-16T03:23:15.128Z,94.78
2023-04-16T03:25:46.547Z,94.41
2023-04-16T03:28:14.500Z,94.57
2023-04-16T03:30:42.403Z,94.45
2023-04-16T03:33:10.285Z,94.46
2023-04-16T03:35:38.169Z,94.60
2023-04-16T03:38:06.006Z,94.54
2023-04-16T03:40:37.716Z,94.25
2023-04-16T03:43:05.597Z,94.77
2023-04-16T03:45:33.454Z,94.38
2023-04-16T03:48:01.278Z,94.58
2023-04-16T03:50:29.134Z,94.78
2023-04-16T03:52:57.013Z,95.20
2023-04-16T03:55:27.694Z,94.82
2023-04-16T03:57:57.426Z,94.48
2023-04-16T04:00:25.377Z,94.52
2023-04-16T04:02:53.385Z,95.11
2023-04-16T04:05:21.362Z,94.83
2023-04-16T04:07:49.260Z,94.65
2023-04-16T04:10:17.293Z,95.18
2023-04-16T04:12:45.455Z,94.92
2023-04-16T04:15:14.964Z,94.96
2023-04-16T04:17:42.863Z,94.58
2023-04-16T04:20:11.919Z,94.53
2023-04-16T04:22:39.788Z,94.52
2023-04-16T04:25:08.565Z,94.82
2023-04-16T04:27:36.440Z,94.93
2023-04-16T04:30:04.895Z,95.44
2023-04-16T04:32:34.147Z,95.42
2023-04-16T04:35:03.662Z,94.82
2023-04-16T04:37:31.490Z,94.63
2023-04-16T04:39:59.384Z,94.51
2023-04-16T04:42:27.314Z,94.27
2023-04-16T04:44:55.169Z,93.92
2023-04-16T04:47:23.055Z,93.96
2023-04-16T04:49:52.315Z,93.73
2023-04-16T04:52:20.996Z,93.53
2023-04-16T04:54:48.848Z,93.80
2023-04-16T04:57:16.680Z,93.46
2023-04-16T04:59:44.767Z,93.85
2023-04-16T05:02:12.654Z,93.83
2023-04-16T05:04:40.951Z,93.78
2023-04-16T05:07:10.234Z,94.02
2023-04-16T05:09:38.080Z,93.85
2023-04-16T05:12:06.167Z,94.08
2023-04-16T05:14:34.000Z,93.63
2023-04-16T05:17:02.073Z,93.37
2023-04-16T05:19:29.986Z,93.23
2023-04-16T05:21:57.864Z,93.43
2023-04-16T05:24:27.176Z,93.17
2023-04-16T05:26:55.040Z,93.19
2023-04-16T05:29:22.887Z,93.19
2023-04-16T05:31:50.884Z,93.22
2023-04-16T05:34:18.769Z,93.54
2023-04-16T05:36:46.936Z,93.31
2023-04-16T05:39:14.822Z,93.86
2023-04-16T05:41:44.021Z,93.50
2023-04-16T05:44:11.917Z,93.98
2023-04-16T05:46:39.801Z,93.85
2023-04-16T05:49:07.946Z,93.63
2023-04-16T05:51:36.621Z,93.74
2023-04-16T05:54:04.602Z,93.43
2023-04-16T05:56:32.476Z,93.69
2023-04-16T05:59:01.701Z,94.19
2023-04-16T06:01:29.612Z,94.13
2023-04-16T06:03:57.536Z,94.14
2023-04-16T06:06:27.385Z,94.18
2023-04-16T06:08:55.267Z,94.58
2023-04-16T06:11:23.262Z,94.17
2023-04-16T06:13:51.116Z,94.81
2023-04-16T06:16:20.325Z,94.31
2023-04-16T06:18:48.335Z,93.90
2023-04-16T06:21:17.165Z,94.78
2023-04-16T06:23:45.079Z,94.53
2023-04-16T06:26:16.135Z,94.35
2023-04-16T06:28:43.957Z,94.64
2023-04-16T06:31:11.948Z,94.46
2023-04-16T06:33:41.221Z,94.34
2023-04-16T06:36:09.139Z,94.17
2023-04-16T06:38:37.843Z,93.81
2023-04-16T06:41:05.951Z,94.11
2023-04-16T06:43:34.524Z,93.59
2023-04-16T06:46:02.385Z,93.15
2023-04-16T06:48:30.306Z,92.91
2023-04-16T06:50:59.743Z,92.80
2023-04-16T06:53:30.742Z,92.52
2023-04-16T06:56:03.318Z,92.38
2023-04-16T06:58:31.171Z,92.02
2023-04-16T07:00:59.208Z,92.26
2023-04-16T07:03:27.700Z,92.21
2023-04-16T07:05:55.706Z,92.34
2023-04-16T07:08:25.521Z,92.54
2023-04-16T07:10:53.864Z,91.19
2023-04-16T07:13:22.167Z,91.63
2023-04-16T07:15:52.952Z,91.50
2023-04-16T07:18:21.459Z,91.82
2023-04-16T07:20:49.381Z,91.10
2023-04-16T07:23:17.261Z,90.93
2023-04-16T07:25:46.530Z,91.96
2023-04-16T07:28:16.632Z,92.09
2023-04-16T07:30:45.720Z,92.10
2023-04-16T07:33:13.622Z,90.81
2023-04-16T07:35:41.462Z,91.25
2023-04-16T07:38:09.429Z,91.20
2023-04-16T07:40:38.100Z,91.12
2023-04-16T07:43:07.862Z,90.50
2023-04-16T07:45:35.822Z,90.48
2023-04-16T07:48:03.748Z,91.11
2023-04-16T07:50:31.755Z,90.70
2023-04-16T07:52:59.757Z,91.38
2023-04-16T07:55:27.646Z,90.85
2023-04-16T07:57:56.291Z,90.07
2023-04-16T08:00:26.400Z,90.53
2023-04-16T08:02:54.480Z,91.10
2023-04-16T08:05:22.645Z,90.37
2023-04-16T08:07:50.639Z,90.39
2023-04-16T08:10:18.537Z,89.80
2023-04-16T08:12:46.518Z,90.29
2023-04-16T08:15:14.439Z,88.81
2023-04-16T08:17:43.704Z,89.17
2023-04-16T08:20:15.764Z,88.82
2023-04-16T08:22:46.525Z,88.50
2023-04-16T08:25:14.427Z,89.81
2023-04-16T08:27:42.524Z,89.71
2023-04-16T08:30:10.644Z,90.04
2023-04-16T08:32:38.651Z,90.79
2023-04-16T08:35:08.569Z,92.42
2023-04-16T08:37:36.504Z,92.54
2023-04-16T08:40:05.050Z,91.78
2023-04-16T08:42:37.063Z,91.18
2023-04-16T08:45:09.546Z,90.83
2023-04-16T08:47:37.999Z,91.57
2023-04-16T08:50:09.944Z,91.20
2023-04-16T08:52:43.461Z,91.79
2023-04-16T08:55:15.136Z,91.53
2023-04-16T08:57:49.500Z,91.89
2023-04-16T09:00:18.425Z,92.45
2023-04-16T09:02:46.682Z,92.73
2023-04-16T09:05:19.003Z,91.08
2023-04-16T09:07:48.383Z,91.35
2023-04-16T09:10:16.939Z,91.64
2023-04-16T09:12:45.552Z,91.31
2023-04-16T09:15:14.863Z,90.88
2023-04-16T09:17:42.850Z,91.66
2023-04-16T09:20:12.517Z,91.29
2023-04-16T09:22:41.808Z,90.30
2023-04-16T09:25:11.054Z,90.10
2023-04-16T09:27:39.267Z,90.01
2023-04-16T09:30:22.097Z,89.23
2023-04-16T09:32:50.493Z,88.64
2023-04-16T09:35:19.800Z,89.52
2023-04-16T09:37:58.134Z,88.16
2023-04-16T09:40:27.368Z,87.20
2023-04-16T09:42:58.821Z,87.38
2023-04-16T09:45:26.736Z,88.09
2023-04-16T09:48:04.250Z,87.52
2023-04-16T09:50:32.284Z,86.00
2023-04-16T09:53:04.550Z,84.58
2023-04-16T09:55:33.675Z,83.65
2023-04-16T09:58:02.417Z,84.54
2023-04-16T10:00:31.867Z,84.34
2023-04-16T10:03:06.743Z,84.53
2023-04-16T10:05:34.928Z,85.25
2023-04-16T10:08:04.234Z,85.74
2023-04-16T10:10:33.657Z,84.50
2023-04-16T10:13:02.640Z,85.81
2023-04-16T10:15:31.406Z,84.40
2023-04-16T10:18:00.325Z,83.95
2023-04-16T10:20:28.913Z,85.78
2023-04-16T10:22:58.686Z,85.26
2023-04-16T10:25:29.975Z,84.41
2023-04-16T10:27:59.517Z,86.47
2023-04-16T10:30:28.849Z,88.29
2023-04-16T10:33:00.201Z,89.11
2023-04-16T10:35:28.452Z,89.13
2023-04-16T10:37:57.899Z,90.51
2023-04-16T10:40:29.491Z,91.31
2023-04-16T10:42:59.135Z,91.32
2023-04-16T10:45:30.760Z,91.48
2023-04-16T10:47:58.924Z,90.66
2023-04-16T10:50:36.001Z,91.68
2023-04-16T10:53:25.713Z,91.23
2023-04-16T10:56:15.512Z,91.16
2023-04-16T10:58:43.558Z,91.96
2023-04-16T11:01:16.991Z,92.18
2023-04-16T11:03:48.128Z,90.89
2023-04-16T11:06:18.120Z,92.26
2023-04-16T11:08:54.654Z,92.48
2023-04-16T11:11:24.838Z,91.71
2023-04-16T11:13:57.492Z,91.59
2023-04-16T11:16:27.637Z,90.95
2023-04-16T11:18:57.096Z,90.41
2023-04-16T11:21:25.655Z,90.46
2023-04-16T11:23:54.824Z,90.18
2023-04-16T11:26:27.114Z,90.12
2023-04-16T11:28:56.667Z,89.88
2023-04-16T11:31:27.250Z,90.30
2023-04-16T11:33:57.821Z,89.49
2023-04-16T11:36:27.728Z,89.35
2023-04-16T11:39:04.191Z,89.08
2023-04-16T11:41:33.516Z,88.93
2023-04-16T11:44:01.420Z,88.65
2023-04-16T11:46:40.728Z,89.00
2023-04-16T11:49:09.058Z,88.76
2023-04-16T11:51:41.504Z,89.12
2023-04-16T11:54:12.030Z,89.56
2023-04-16T11:56:48.669Z,89.13
2023-04-16T11:59:18.183Z,89.85
2023-04-16T12:01:49.820Z,90.19
2023-04-16T12:04:20.218Z,88.98
2023-04-16T12:07:08.452Z,89.07
2023-04-16T12:09:40.135Z,90.75
2023-04-16T12:12:27.596Z,90.39
2023-04-16T12:14:57.031Z,90.76
2023-04-16T12:17:25.569Z,89.75
2023-04-16T12:19:57.786Z,89.14
2023-04-16T12:22:30.717Z,87.86
2023-04-16T12:25:04.159Z,86.66
2023-04-16T12:27:53.391Z,88.96
2023-04-16T12:30:25.214Z,86.92
2023-04-16T12:32:57.903Z,88.04
2023-04-16T12:35:36.960Z,87.48
2023-04-16T12:38:17.048Z,87.53
2023-04-16T12:40:45.097Z,88.80
2023-04-16T12:43:14.699Z,88.56
2023-04-16T12:45:42.909Z,88.11
2023-04-16T12:48:10.992Z,88.42
2023-04-16T12:50:40.981Z,88.64
2023-04-16T12:53:12.882Z,87.76
2023-04-16T12:55:46.888Z,87.42
2023-04-16T12:58:25.674Z,87.35
2023-04-16T13:00:54.069Z,85.04
2023-04-16T13:03:24.572Z,83.40
2023-04-16T13:05:52.978Z,81.87
2023-04-16T13:08:21.871Z,80.62
2023-04-16T13:10:50.091Z,79.57
2023-04-16T13:13:34.485Z,79.56
2023-04-16T13:16:04.207Z,80.55
2023-04-16T13:18:32.214Z,81.91
2023-04-16T13:21:00.776Z,83.57
2023-04-16T13:23:28.876Z,83.35
2023-04-16T13:25:59.165Z,84.29
2023-04-16T13:28:27.258Z,84.49
2023-04-16T13:30:56.888Z,81.31
2023-04-16T13:33:25.126Z,82.94
2023-04-16T13:35:53.359Z,81.63
2023-04-16T17:39:15.818Z,87.42
2023-04-16T17:41:43.861Z,87.15
2023-04-16T17:44:12.230Z,87.16
2023-04-16T17:46:40.250Z,87.03
2023-04-16T17:49:08.400Z,87.52
2023-04-16T17:51:36.401Z,87.70
2023-04-16T17:54:04.479Z,87.66
2023-04-16T17:56:33.975Z,87.62
2023-04-16T17:59:02.223Z,87.34
2023-04-16T18:01:30.223Z,87.49
2023-04-16T18:03:58.421Z,87.52
2023-04-16T18:06:27.593Z,87.13
2023-04-16T18:08:55.526Z,87.71
2023-04-16T18:11:23.535Z,88.83
2023-04-16T18:13:54.028Z,89.37
2023-04-16T18:16:22.446Z,90.41
2023-04-16T18:18:50.919Z,91.12
2023-04-16T18:21:18.868Z,91.25
2023-04-16T18:23:48.177Z,89.52
2023-04-16T18:26:20.439Z,91.77
2023-04-16T18:28:50.362Z,91.94
2023-04-16T18:31:21.370Z,92.42
2023-04-16T18:33:57.417Z,92.98
2023-04-16T18:36:27.438Z,90.21
2023-04-16T18:41:27.210Z,90.79
2023-04-16T18:43:55.385Z,90.42
2023-04-16T18:46:25.328Z,90.45
2023-04-16T18:48:53.594Z,89.11
2023-04-16T18:51:21.666Z,90.52
2023-04-16T18:53:49.645Z,88.32
2023-04-16T18:56:17.668Z,89.24
2023-04-16T18:58:45.726Z,89.01
2023-04-16T19:01:14.155Z,88.62
2023-04-16T19:03:46.482Z,89.17
2023-04-16T19:06:16.917Z,89.34
2023-04-16T19:08:44.984Z,89.30
2023-04-16T19:11:13.030Z,89.28
2023-04-16T19:14:34.397Z,88.14
2023-04-16T19:16:36.214Z,89.31
2023-04-16T19:19:05.568Z,89.69
2023-04-16T19:21:33.699Z,89.56
2023-04-16T19:24:01.664Z,89.95
2023-04-16T19:26:29.685Z,90.38
2023-04-16T19:28:57.673Z,91.07
2023-04-16T19:31:26.447Z,90.96
2023-04-16T19:33:54.384Z,88.17
2023-04-16T19:36:23.722Z,90.09
2023-04-16T19:38:51.716Z,90.87
2023-04-16T19:41:19.787Z,91.21
2023-04-16T19:43:47.795Z,91.23
2023-04-16T19:46:16.758Z,91.54
2023-04-16T19:48:44.754Z,91.93
2023-04-16T19:51:12.657Z,91.79
2023-04-16T19:53:42.230Z,92.50
2023-04-16T19:56:10.134Z,92.82
2023-04-16T19:58:39.252Z,92.40
2023-04-16T20:01:09.872Z,92.58
2023-04-16T20:03:38.127Z,92.40
2023-04-16T20:06:07.628Z,92.84
2023-04-16T20:08:37.549Z,92.13
2023-04-16T20:11:08.562Z,91.95
2023-04-16T20:13:37.586Z,93.03
2023-04-16T20:16:05.777Z,92.86
2023-04-16T20:18:41.393Z,93.10
2023-04-16T20:21:09.482Z,93.62
2023-04-16T20:23:37.441Z,94.09
2023-04-16T20:26:07.404Z,93.68
2023-04-16T20:28:35.318Z,93.64
2023-04-16T20:31:03.217Z,87.75
2023-04-16T20:33:31.092Z,88.84
2023-04-16T20:35:58.997Z,88.87
2023-04-16T20:38:29.650Z,90.79
2023-04-16T20:41:06.577Z,90.41
2023-04-16T20:43:38.632Z,90.39
2023-04-16T20:46:06.752Z,89.63
2023-04-16T20:48:35.337Z,90.05
2023-04-16T20:51:05.415Z,90.62
2023-04-16T20:53:34.416Z,89.66
2023-04-16T20:56:02.321Z,89.93
2023-04-16T20:58:30.726Z,90.93
2023-04-16T21:01:00.020Z,90.85
2023-04-16T21:03:28.114Z,89.69
2023-04-16T21:05:56.838Z,90.44
2023-04-16T21:08:25.649Z,90.80
2023-04-16T21:10:53.586Z,91.84
2023-04-16T21:13:21.865Z,91.02
2023-04-16T21:15:49.829Z,91.34
2023-04-16T21:18:19.334Z,89.19
2023-04-16T21:20:47.257Z,89.17
2023-04-16T21:23:15.178Z,90.62
2023-04-16T21:25:43.053Z,89.00
2023-04-16T21:28:10.952Z,89.60
2023-04-16T21:30:39.302Z,89.80
2023-04-16T21:33:07.658Z,89.57
2023-04-16T21:35:36.924Z,89.62
2023-04-16T21:38:04.852Z,90.73
2023-04-16T21:40:32.777Z,91.29
2023-04-16T21:43:01.037Z,91.29
2023-04-16T21:45:30.505Z,89.36
2023-04-16T21:47:58.704Z,89.68
2023-04-16T21:50:26.707Z,87.84
2023-04-16T21:52:56.002Z,88.25
2023-04-16T21:55:24.443Z,88.53
2023-04-16T21:57:52.338Z,87.77
2023-04-16T22:00:21.210Z,87.97
2023-04-16T22:02:49.360Z,88.08
2023-04-16T22:05:17.661Z,87.49
2023-04-16T22:07:46.044Z,89.43
2023-04-16T22:10:15.935Z,89.81
2023-04-16T22:12:44.914Z,90.57
2023-04-16T22:15:14.629Z,86.98
2023-04-16T22:17:42.796Z,90.24
2023-04-16T22:20:12.749Z,90.63
2023-04-16T22:22:41.072Z,90.74
2023-04-16T22:25:09.788Z,91.48
2023-04-16T22:27:39.335Z,91.38
2023-04-16T22:30:09.282Z,91.10
2023-04-16T22:32:37.371Z,91.04
2023-04-16T22:35:06.069Z,91.34
2023-04-16T22:37:34.725Z,91.55
2023-04-16T22:40:02.843Z,91.88
2023-04-16T22:42:32.910Z,92.31
2023-04-16T22:45:02.283Z,91.12
2023-04-16T22:47:30.364Z,91.66
2023-04-16T22:49:59.140Z,91.92
2023-04-16T22:52:27.421Z,92.05
2023-04-16T22:54:55.542Z,92.83
2023-04-16T22:57:25.646Z,92.96
2023-04-16T22:59:54.146Z,92.43
2023-04-16T23:02:23.638Z,92.50
2023-04-16T23:04:51.755Z,91.81
2023-04-16T23:07:19.779Z,91.09
2023-04-16T23:09:47.782Z,88.25
2023-04-16T23:12:15.789Z,90.83
2023-04-16T23:14:46.041Z,92.27
2023-04-16T23:17:14.780Z,92.49
2023-04-16T23:19:44.178Z,93.44
2023-04-16T23:22:12.334Z,93.24
2023-04-16T23:24:40.332Z,91.63
2023-04-16T23:27:08.445Z,91.71
2023-04-16T23:29:36.451Z,92.28
2023-04-16T23:32:04.554Z,91.47
2023-04-16T23:34:32.495Z,92.97
2023-04-16T23:37:01.888Z,91.94
2023-04-16T23:39:29.858Z,92.25
2023-04-16T23:41:58.225Z,92.92
2023-04-16T23:44:26.269Z,92.78
2023-04-16T23:46:54.261Z,93.70
2023-04-16T23:49:22.211Z,93.31
2023-04-16T23:51:50.046Z,92.00
2023-04-16T23:54:19.433Z,92.00
2023-04-16T23:56:47.295Z,89.53
2023-04-16T23:59:15.437Z,91.46
